Time;durP1;ratioP1;P1;durP2;ratioP2;P2;SDS_P1;SDS_P2;PMS_P1;PMS_P2;Temp;Humidity;BMP_temperature;BMP_pressure;BME280_temperature;BME280_humidity;BME280_pressure;Samples;Min_cycle;Max_cycle;Signal;HPM_P1;HPM_P2
2021/03/24 00:00:44;;;;;;;64.60;41.58;;;3.90;99.90;;;;;;5041469;28;20192;-71
2021/03/24 00:03:11;;;;;;;67.97;41.97;;;3.90;99.90;;;;;;5044278;28;20025;-72
2021/03/24 00:05:41;;;;;;;64.13;40.90;;;4.10;99.90;;;;;;5041551;28;20037;-72
2021/03/24 00:08:07;;;;;;;65.47;40.40;;;4.00;99.90;;;;;;5040872;28;20453;-71
2021/03/24 00:10:34;;;;;;;63.28;40.33;;;4.10;99.90;;;;;;5041071;28;20030;-71
2021/03/24 00:13:00;;;;;;;68.32;41.85;;;4.10;99.90;;;;;;5042615;28;20021;-72
2021/03/24 00:15:27;;;;;;;63.28;41.25;;;4.10;99.90;;;;;;5046304;28;20402;-72
2021/03/24 00:17:53;;;;;;;65.88;41.38;;;4.10;99.90;;;;;;5042713;28;20024;-71
2021/03/24 00:20:22;;;;;;;69.25;41.58;;;4.10;99.90;;;;;;5045412;28;20025;-72
2021/03/24 00:22:48;;;;;;;67.47;40.50;;;4.10;99.90;;;;;;5034574;28;20033;-71
2021/03/24 00:25:16;;;;;;;62.17;40.20;;;4.10;99.90;;;;;;5042397;28;20340;-71
2021/03/24 00:27:43;;;;;;;64.28;39.83;;;4.20;99.90;;;;;;5040567;28;20036;-71
2021/03/24 00:30:10;;;;;;;61.10;39.92;;;4.20;99.90;;;;;;5042741;28;20063;-71
2021/03/24 00:32:36;;;;;;;62.50;40.67;;;4.30;99.90;;;;;;5041061;28;20377;-72
2021/03/24 00:35:03;;;;;;;67.47;41.50;;;4.20;99.90;;;;;;5035134;28;20017;-72
2021/03/24 00:37:29;;;;;;;62.97;39.97;;;4.30;99.90;;;;;;5039479;28;20018;-72
2021/03/24 00:39:54;;;;;;;60.55;40.03;;;4.30;99.90;;;;;;5040818;28;20367;-72
2021/03/24 00:42:20;;;;;;;62.88;40.55;;;4.30;99.90;;;;;;5043380;28;20033;-72
2021/03/24 00:44:45;;;;;;;63.72;39.97;;;4.40;99.90;;;;;;5045978;28;20034;-73
2021/03/24 00:47:11;;;;;;;63.88;39.90;;;4.30;99.90;;;;;;5045038;28;20032;-73
2021/03/24 00:49:36;;;;;;;63.15;41.78;;;4.50;99.90;;;;;;5050260;28;20029;-72
2021/03/24 00:52:02;;;;;;;67.65;41.33;;;4.50;99.90;;;;;;5041007;28;20026;-73
2021/03/24 00:54:28;;;;;;;60.70;37.85;;;4.30;99.90;;;;;;5048450;28;20028;-72
2021/03/24 00:56:53;;;;;;;57.80;38.40;;;4.30;99.90;;;;;;5038338;28;20022;-72
2021/03/24 00:59:19;;;;;;;64.63;40.05;;;4.30;99.90;;;;;;5041483;28;20383;-72
2021/03/24 01:01:44;;;;;;;61.33;37.17;;;4.20;99.90;;;;;;5031645;28;20025;-71
2021/03/24 01:04:10;;;;;;;59.88;39.33;;;4.30;99.90;;;;;;5045764;28;20557;-72
2021/03/24 01:06:36;;;;;;;61.38;38.28;;;4.30;99.90;;;;;;5041262;28;20026;-72
2021/03/24 01:09:03;;;;;;;63.75;39.92;;;4.30;99.90;;;;;;5035459;28;20029;-72
2021/03/24 01:11:29;;;;;;;62.20;40.17;;;4.30;99.90;;;;;;5039737;28;20083;-72
2021/03/24 01:13:54;;;;;;;61.60;37.80;;;4.50;99.90;;;;;;5044417;28;20021;-72
2021/03/24 01:16:20;;;;;;;61.78;40.53;;;4.40;99.90;;;;;;5045002;28;20391;-72
2021/03/24 01:18:45;;;;;;;59.95;39.80;;;4.40;99.90;;;;;;5042330;28;20017;-72
2021/03/24 01:21:11;;;;;;;61.38;38.72;;;4.40;99.90;;;;;;5030021;28;20080;-71
2021/03/24 01:23:36;;;;;;;68.20;40.58;;;4.30;99.90;;;;;;5034050;28;20044;-72
2021/03/24 01:26:02;;;;;;;62.63;39.63;;;4.30;99.90;;;;;;5019846;28;20471;-73
2021/03/24 01:28:29;;;;;;;68.70;41.17;;;4.30;99.90;;;;;;5014094;28;20034;-72
2021/03/24 01:30:56;;;;;;;64.70;40.13;;;4.40;99.90;;;;;;5012373;28;20395;-72
2021/03/24 01:33:22;;;;;;;61.95;39.28;;;4.40;99.90;;;;;;5013900;28;20018;-72
2021/03/24 01:35:47;;;;;;;63.42;39.75;;;4.40;99.90;;;;;;5026902;28;20104;-72
2021/03/24 01:38:13;;;;;;;64.28;40.28;;;4.40;99.90;;;;;;5022461;28;20049;-73
2021/03/24 01:40:51;;;;;;;63.17;40.85;;;4.40;99.90;;;;;;5017075;28;20087;-72
2021/03/24 01:43:30;;;;;;;63.88;38.63;;;4.40;99.90;;;;;;5013696;28;20025;-73
2021/03/24 01:46:24;;;;;;;62.13;40.25;;;4.40;99.90;;;;;;5013073;28;20036;-72
2021/03/24 01:49:03;;;;;;;67.03;40.00;;;4.30;99.90;;;;;;5016087;28;20083;-73
2021/03/24 01:51:36;;;;;;;61.72;37.28;;;4.40;99.90;;;;;;5021135;28;20025;-72
2021/03/24 01:54:04;;;;;;;61.78;39.45;;;4.40;99.90;;;;;;5019559;28;20360;-72
2021/03/24 01:56:31;;;;;;;65.85;40.28;;;4.40;99.90;;;;;;5033264;28;20022;-72
2021/03/24 01:58:57;;;;;;;64.03;40.45;;;4.40;99.90;;;;;;5013495;28;20029;-72
2021/03/24 02:01:24;;;;;;;63.13;40.55;;;4.40;99.90;;;;;;5013138;28;20034;-73
2021/03/24 02:03:50;;;;;;;65.07;39.70;;;4.30;99.90;;;;;;5013473;28;20111;-73
2021/03/24 02:06:27;;;;;;;64.20;40.03;;;4.50;99.90;;;;;;5013331;28;20026;-73
2021/03/24 02:09:18;;;;;;;63.85;39.45;;;4.40;99.90;;;;;;5021223;28;20495;-72
2021/03/24 02:11:55;;;;;;;62.33;39.95;;;4.40;99.90;;;;;;5026812;28;20502;-73
2021/03/24 02:14:32;;;;;;;61.92;39.28;;;4.40;99.90;;;;;;5013229;28;20022;-72
2021/03/24 02:16:59;;;;;;;60.28;38.47;;;4.30;99.90;;;;;;5032833;28;20458;-72
2021/03/24 02:19:55;;;;;;;66.38;41.55;;;4.30;99.90;;;;;;5033308;28;20021;-71
2021/03/24 02:22:27;;;;;;;69.05;41.78;;;4.30;99.90;;;;;;5012782;28;20117;-71
2021/03/24 02:25:13;;;;;;;62.22;38.60;;;4.40;99.90;;;;;;5015714;28;20037;-72
2021/03/24 02:27:43;;;;;;;64.32;40.53;;;4.40;99.90;;;;;;5026173;28;20104;-71
2021/03/24 02:30:18;;;;;;;67.80;41.90;;;4.40;99.90;;;;;;5022276;28;20522;-72
2021/03/24 02:32:50;;;;;;;68.05;41.97;;;4.40;99.90;;;;;;5013581;28;20435;-73
2021/03/24 02:35:22;;;;;;;62.85;39.75;;;4.30;99.90;;;;;;5025280;28;20128;-72
2021/03/24 02:37:48;;;;;;;63.67;40.30;;;4.40;99.90;;;;;;5032631;28;20034;-73
2021/03/24 02:40:18;;;;;;;66.80;40.85;;;4.40;99.90;;;;;;5017824;28;20487;-72
2021/03/24 02:42:47;;;;;;;65.65;40.42;;;4.40;99.90;;;;;;5019559;28;20029;-72
2021/03/24 02:45:16;;;;;;;66.40;41.13;;;4.40;99.90;;;;;;5017998;28;20033;-73
2021/03/24 02:47:44;;;;;;;63.72;40.72;;;4.50;99.90;;;;;;5020512;28;20026;-73
2021/03/24 02:50:11;;;;;;;60.25;38.80;;;4.50;99.90;;;;;;5018734;28;20026;-71
2021/03/24 02:52:37;;;;;;;66.00;40.85;;;4.30;99.90;;;;;;5023876;28;20395;-72
2021/03/24 02:55:06;;;;;;;63.05;40.50;;;4.30;99.90;;;;;;5014185;28;20030;-72
2021/03/24 02:57:32;;;;;;;60.03;37.80;;;4.30;99.90;;;;;;5031301;28;20025;-71
2021/03/24 02:59:57;;;;;;;61.90;38.63;;;4.30;99.90;;;;;;5016594;28;20033;-71
2021/03/24 03:02:27;;;;;;;60.22;37.17;;;4.20;99.90;;;;;;5012067;28;20038;-72
2021/03/24 03:05:15;;;;;;;63.92;39.75;;;4.20;99.90;;;;;;5025476;28;20548;-72
2021/03/24 03:07:48;;;;;;;66.95;41.05;;;4.20;99.90;;;;;;5010910;28;20030;-73
2021/03/24 03:10:45;;;;;;;66.95;40.42;;;4.20;99.90;;;;;;5017120;28;20029;-72
2021/03/24 03:13:20;;;;;;;65.30;39.88;;;4.20;99.90;;;;;;5015233;28;20506;-72
2021/03/24 03:16:12;;;;;;;64.60;39.30;;;4.20;99.90;;;;;;5024041;28;20112;-73
2021/03/24 03:18:55;;;;;;;65.18;39.28;;;4.20;99.90;;;;;;5031911;28;20029;-73
2021/03/24 03:21:41;;;;;;;63.05;37.92;;;4.20;99.90;;;;;;5025822;28;20052;-72
2021/03/24 03:24:09;;;;;;;60.42;38.90;;;4.20;99.90;;;;;;5012136;28;20097;-72
2021/03/24 03:26:38;;;;;;;62.55;40.45;;;4.20;99.90;;;;;;5012042;28;20034;-71
2021/03/24 03:29:16;;;;;;;60.30;39.08;;;4.30;99.90;;;;;;5025256;28;20100;-72
2021/03/24 03:31:48;;;;;;;61.88;39.08;;;4.30;99.90;;;;;;5020631;28;20030;-72
2021/03/24 03:34:17;;;;;;;63.75;38.63;;;4.20;99.90;;;;;;5012036;28;20092;-72
2021/03/24 03:36:47;;;;;;;64.13;39.45;;;4.20;99.90;;;;;;5021680;28;20045;-72
2021/03/24 03:39:17;;;;;;;60.58;38.20;;;4.30;99.90;;;;;;5025429;28;20030;-72
2021/03/24 03:41:44;;;;;;;59.83;36.80;;;4.20;99.90;;;;;;5011699;28;20091;-71
2021/03/24 03:44:11;;;;;;;62.10;37.28;;;4.20;99.90;;;;;;5016096;28;20029;-72
2021/03/24 03:46:43;;;;;;;56.60;36.83;;;4.20;99.90;;;;;;5019481;28;20505;-71
2021/03/24 03:49:08;;;;;;;63.90;39.17;;;4.30;99.90;;;;;;5031375;28;20022;-72
2021/03/24 03:51:45;;;;;;;61.28;37.33;;;4.20;99.90;;;;;;5017406;28;20384;-73
2021/03/24 03:54:35;;;;;;;64.63;38.53;;;4.20;99.90;;;;;;5010586;28;20029;-71
2021/03/24 03:57:12;;;;;;;63.42;39.70;;;4.20;99.90;;;;;;5010527;28;20536;-72
2021/03/24 03:59:42;;;;;;;66.13;40.72;;;4.20;99.90;;;;;;5011855;28;20022;-71
2021/03/24 04:02:13;;;;;;;61.08;39.10;;;4.20;99.90;;;;;;5011334;28;20117;-72
2021/03/24 04:04:44;;;;;;;60.85;38.78;;;4.30;99.90;;;;;;5023967;28;20031;-71
2021/03/24 04:07:23;;;;;;;65.97;38.95;;;4.10;99.90;;;;;;5022891;28;20033;-72
2021/03/24 04:09:49;;;;;;;61.88;39.15;;;4.00;99.90;;;;;;5031353;28;20569;-71
2021/03/24 04:12:17;;;;;;;67.43;39.85;;;4.10;99.90;;;;;;5033795;28;20022;-73
2021/03/24 04:14:44;;;;;;;62.85;38.50;;;4.00;99.90;;;;;;5019243;28;20037;-72
2021/03/24 04:17:14;;;;;;;59.25;38.40;;;4.00;99.90;;;;;;5043078;28;20066;-71
2021/03/24 04:19:44;;;;;;;60.17;39.65;;;4.00;99.90;;;;;;5052633;28;20029;-71
2021/03/24 04:22:14;;;;;;;58.90;37.53;;;4.10;99.90;;;;;;5023432;28;20029;-72
2021/03/24 04:24:45;;;;;;;56.97;37.08;;;4.10;99.90;;;;;;5020482;28;20025;-72
2021/03/24 04:27:13;;;;;;;61.75;38.50;;;4.10;99.90;;;;;;5034966;28;20021;-73
2021/03/24 04:29:55;;;;;;;64.72;37.47;;;4.20;99.90;;;;;;5021772;28;20025;-72
2021/03/24 04:32:21;;;;;;;62.03;37.78;;;4.10;99.90;;;;;;5033280;28;20513;-72
2021/03/24 04:34:47;;;;;;;59.50;38.10;;;4.00;99.90;;;;;;5022852;28;20029;-71
2021/03/24 04:37:34;;;;;;;62.03;39.30;;;4.10;99.90;;;;;;5033537;28;20040;-72
2021/03/24 04:40:21;;;;;;;62.90;38.13;;;4.10;99.90;;;;;;5033550;28;20049;-72
2021/03/24 04:42:58;;;;;;;63.08;38.13;;;4.00;99.90;;;;;;5014759;28;20029;-72
2021/03/24 04:45:27;;;;;;;58.30;37.70;;;4.00;99.90;;;;;;5026847;28;20021;-72
2021/03/24 04:47:54;;;;;;;63.70;37.63;;;3.90;99.90;;;;;;5013537;28;20026;-71
2021/03/24 04:50:35;;;;;;;64.68;37.95;;;3.90;99.90;;;;;;5014519;28;20234;-73
2021/03/24 04:53:03;;;;;;;64.93;39.95;;;3.80;99.90;;;;;;5014474;28;20057;-72
2021/03/24 04:55:30;;;;;;;60.05;38.38;;;3.90;99.90;;;;;;5028075;28;20488;-73
2021/03/24 04:57:58;;;;;;;63.08;39.17;;;3.90;99.90;;;;;;5013385;28;20026;-72
2021/03/24 05:00:45;;;;;;;62.55;38.58;;;3.90;99.90;;;;;;5018416;28;20044;-72
2021/03/24 05:03:19;;;;;;;61.30;37.97;;;4.00;99.90;;;;;;5032918;28;20380;-72
2021/03/24 05:05:53;;;;;;;58.65;35.67;;;4.00;99.90;;;;;;5023254;28;20033;-72
2021/03/24 05:08:40;;;;;;;62.17;38.50;;;4.10;99.90;;;;;;5017495;28;20029;-72
2021/03/24 05:11:31;;;;;;;65.85;42.13;;;4.10;99.90;;;;;;5027086;28;20037;-72
2021/03/24 05:13:59;;;;;;;75.13;45.70;;;4.10;99.90;;;;;;5024593;28;20022;-73
2021/03/24 05:16:34;;;;;;;65.63;41.53;;;4.00;99.90;;;;;;5035013;28;20036;-73
2021/03/24 05:19:00;;;;;;;65.20;41.20;;;3.90;99.90;;;;;;5040672;28;20104;-72
2021/03/24 05:21:50;;;;;;;65.43;40.75;;;3.80;99.90;;;;;;5033750;28;20429;-72
2021/03/24 05:24:25;;;;;;;55.75;36.30;;;3.80;99.90;;;;;;5034369;28;20036;-72
2021/03/24 05:26:58;;;;;;;60.95;39.92;;;3.90;99.90;;;;;;5032625;28;20033;-72
2021/03/24 05:29:27;;;;;;;63.67;40.63;;;4.00;99.90;;;;;;5032567;28;20034;-71
2021/03/24 05:31:55;;;;;;;60.00;37.72;;;3.90;99.90;;;;;;5033414;28;20037;-71
2021/03/24 05:34:32;;;;;;;58.38;36.30;;;3.80;99.90;;;;;;5033769;28;20017;-72
2021/03/24 05:36:59;;;;;;;58.17;37.22;;;3.70;99.90;;;;;;5027805;23;20042;-70
2021/03/24 05:39:29;;;;;;;56.38;36.13;;;3.70;99.90;;;;;;5012417;28;20387;-69
2021/03/24 05:42:19;;;;;;;60.60;37.63;;;3.80;99.90;;;;;;5013370;28;20036;-69
2021/03/24 05:45:06;;;;;;;67.50;45.97;;;3.80;99.90;;;;;;5012157;28;20040;-69
2021/03/24 05:47:38;;;;;;;58.13;37.53;;;3.70;99.90;;;;;;4993947;28;20097;-69
2021/03/24 05:50:41;;;;;;;69.20;47.05;;;3.60;99.90;;;;;;4992419;28;20512;-69
2021/03/24 05:53:40;;;;;;;61.72;40.97;;;3.60;99.90;;;;;;4993775;28;20033;-70
2021/03/24 05:56:11;;;;;;;57.40;37.53;;;3.70;99.90;;;;;;5003505;28;20022;-70
2021/03/24 05:59:14;;;;;;;59.22;37.42;;;3.70;99.90;;;;;;5013343;28;20014;-70
2021/03/24 06:02:01;;;;;;;68.72;45.40;;;3.50;99.90;;;;;;5013111;28;20420;-69
2021/03/24 06:04:31;;;;;;;;;;;3.60;99.90;;;;;;5013711;28;20499;-72
2021/03/24 06:07:30;;;;;;;58.30;39.83;;;3.70;99.90;;;;;;5013134;28;20403;-71
2021/03/24 06:10:15;;;;;;;59.42;40.53;;;3.70;99.90;;;;;;5013081;28;20037;-70
2021/03/24 06:12:59;;;;;;;56.65;38.10;;;3.80;99.90;;;;;;5013016;28;20021;-70
2021/03/24 06:15:47;;;;;;;53.40;35.25;;;3.90;99.90;;;;;;5012978;28;20025;-72
2021/03/24 06:18:40;;;;;;;53.85;34.50;;;3.90;99.90;;;;;;4993251;28;20022;-72
2021/03/24 06:21:22;;;;;;;55.25;35.45;;;3.90;99.90;;;;;;4993118;28;20034;-71
2021/03/24 06:24:08;;;;;;;54.35;36.30;;;4.00;99.90;;;;;;4993205;28;20064;-72
2021/03/24 06:26:57;;;;;;;68.15;47.65;;;4.10;99.90;;;;;;4981237;28;20072;-71
2021/03/24 06:29:41;;;;;;;58.63;42.13;;;4.10;99.90;;;;;;4993192;28;20033;-71
2021/03/24 06:32:49;;;;;;;60.38;42.60;;;4.20;99.90;;;;;;5005431;28;20076;-71
2021/03/24 06:35:36;;;;;;;;;;;4.30;99.90;;;;;;5012920;28;20029;-71
2021/03/24 06:38:34;;;;;;;54.75;37.67;;;4.30;99.90;;;;;;5012586;28;19910;-70
2021/03/24 06:41:15;;;;;;;55.25;34.65;;;4.30;99.90;;;;;;4993386;28;20081;-71
2021/03/24 06:43:56;;;;;;;51.40;33.97;;;4.30;99.90;;;;;;4993572;28;20030;-70
2021/03/24 06:46:31;;;;;;;53.13;33.15;;;4.30;99.90;;;;;;5002673;28;20133;-70
2021/03/24 06:49:16;;;;;;;49.92;34.30;;;4.30;99.90;;;;;;4992958;28;20026;-70
2021/03/24 06:52:16;;;;;;;48.92;33.70;;;4.40;99.90;;;;;;4991390;28;20027;-70
2021/03/24 06:55:03;;;;;;;50.17;34.15;;;4.30;99.90;;;;;;4992936;28;20029;-71
2021/03/24 06:57:51;;;;;;;47.78;30.80;;;4.40;99.90;;;;;;4989846;28;20022;-71
2021/03/24 07:00:32;;;;;;;50.53;32.20;;;4.40;99.90;;;;;;4994937;28;20506;-71
2021/03/24 07:03:29;;;;;;;50.17;34.40;;;4.50;99.90;;;;;;4992604;28;20399;-72
2021/03/24 07:06:37;;;;;;;65.50;45.60;;;4.60;99.90;;;;;;4994703;28;20022;-71
2021/03/24 07:09:26;;;;;;;59.80;40.30;;;4.70;99.90;;;;;;4964338;28;20062;-70
2021/03/24 07:12:23;;;;;;;48.00;33.45;;;4.80;99.90;;;;;;5005505;28;20030;-71
2021/03/24 07:14:48;;;;;;;50.42;34.60;;;4.90;99.90;;;;;;5005866;28;20014;-71
2021/03/24 07:17:42;;;;;;;57.17;35.58;;;4.90;99.90;;;;;;4991307;28;20047;-70
2021/03/24 07:20:36;;;;;;;53.63;34.60;;;5.10;99.90;;;;;;4998832;28;20033;-71
2021/03/24 07:23:35;;;;;;;51.30;33.90;;;5.20;99.90;;;;;;4992605;28;20632;-71
2021/03/24 07:26:28;;;;;;;52.25;34.33;;;5.30;99.90;;;;;;4992477;28;20030;-71
2021/03/24 07:29:25;;;;;;;51.90;35.25;;;5.30;99.90;;;;;;4993943;28;20032;-71
2021/03/24 07:32:08;;;;;;;48.33;33.28;;;5.40;99.90;;;;;;4990965;28;20113;-71
2021/03/24 07:34:37;;;;;;;51.50;32.85;;;5.50;99.90;;;;;;4990534;28;20120;-71
2021/03/24 07:37:12;;;;;;;49.83;33.20;;;5.60;99.90;;;;;;4992930;28;20034;-72
2021/03/24 07:40:12;;;;;;;48.60;32.25;;;5.70;99.90;;;;;;4993456;28;20025;-71
2021/03/24 07:42:49;;;;;;;48.97;31.33;;;5.80;99.90;;;;;;4976152;28;20042;-70
2021/03/24 07:45:43;;;;;;;46.88;30.67;;;5.90;99.90;;;;;;4998244;28;20101;-72
2021/03/24 07:48:50;;;;;;;44.30;29.85;;;6.00;99.90;;;;;;4994607;28;20053;-70
2021/03/24 07:51:50;;;;;;;46.60;31.42;;;6.10;99.90;;;;;;4998976;28;20038;-71
2021/03/24 07:54:29;;;;;;;50.60;31.00;;;6.10;99.90;;;;;;4995220;28;20034;-71
2021/03/24 07:57:01;;;;;;;40.88;29.38;;;6.20;99.90;;;;;;4993008;28;20033;-71
2021/03/24 07:59:51;;;;;;;42.85;28.67;;;6.30;99.90;;;;;;4997669;28;20034;-70
2021/03/24 08:02:17;;;;;;;41.92;27.45;;;6.40;99.90;;;;;;4994613;28;20022;-70
2021/03/24 08:04:56;;;;;;;41.72;28.27;;;6.50;99.90;;;;;;4999513;28;20499;-70
2021/03/24 08:07:35;;;;;;;38.92;27.40;;;6.60;99.90;;;;;;4995492;28;20059;-70
2021/03/24 08:10:25;;;;;;;37.88;25.20;;;6.70;99.90;;;;;;4995234;28;20023;-72
2021/03/24 08:13:19;;;;;;;44.90;28.75;;;6.70;99.90;;;;;;4995136;28;20030;-70
2021/03/24 08:16:10;;;;;;;38.58;26.27;;;6.80;99.90;;;;;;4993561;28;20030;-70
2021/03/24 08:18:58;;;;;;;38.78;25.98;;;6.90;99.90;;;;;;4991365;28;20472;-70
2021/03/24 08:21:49;;;;;;;36.80;25.33;;;7.00;99.90;;;;;;4995053;28;20101;-71
2021/03/24 08:24:20;;;;;;;38.85;27.58;;;7.10;99.90;;;;;;4959382;28;20091;-71
2021/03/24 08:26:52;;;;;;;35.65;24.83;;;7.20;99.90;;;;;;4995035;28;20093;-70
2021/03/24 08:29:44;;;;;;;35.05;25.40;;;7.20;99.90;;;;;;4994866;28;20023;-71
2021/03/24 08:32:13;;;;;;;40.65;28.13;;;7.30;99.90;;;;;;4994885;28;20384;-70
2021/03/24 08:34:47;;;;;;;42.10;28.30;;;7.60;99.90;;;;;;5011911;28;20022;-71
2021/03/24 08:37:42;;;;;;;38.45;27.00;;;7.40;99.90;;;;;;5010713;28;20523;-71
2021/03/24 08:40:26;;;;;;;38.03;25.83;;;7.50;99.90;;;;;;4994929;28;20029;-71
2021/03/24 08:43:29;;;;;;;35.35;26.15;;;7.40;99.90;;;;;;4995573;28;20053;-70
2021/03/24 08:46:24;;;;;;;37.22;25.92;;;7.50;99.90;;;;;;4994439;28;20033;-71
2021/03/24 08:49:01;;;;;;;38.33;25.98;;;7.70;99.90;;;;;;4994280;28;20023;-69
2021/03/24 08:51:45;;;;;;;33.95;25.50;;;7.70;99.90;;;;;;4994133;28;20101;-70
2021/03/24 08:54:48;;;;;;;38.45;26.00;;;7.70;99.90;;;;;;5009572;28;20029;-70
2021/03/24 08:57:31;;;;;;;37.88;24.67;;;7.70;99.90;;;;;;4994655;28;20447;-70
2021/03/24 09:00:05;;;;;;;34.92;24.70;;;7.70;99.90;;;;;;4994629;28;20034;-70
2021/03/24 09:02:52;;;;;;;34.67;24.77;;;7.70;99.90;;;;;;4994404;28;20113;-71
2021/03/24 09:05:21;;;;;;;32.90;24.63;;;7.60;99.90;;;;;;4995796;28;20031;-69
2021/03/24 09:08:24;;;;;;;38.70;27.13;;;7.70;99.90;;;;;;4992698;28;20062;-70
2021/03/24 09:11:11;;;;;;;41.53;26.75;;;7.80;99.90;;;;;;4992739;28;20026;-70
2021/03/24 09:13:42;;;;;;;40.58;26.25;;;8.00;99.90;;;;;;4992716;28;20022;-70
2021/03/24 09:16:41;;;;;;;41.00;26.50;;;8.10;99.90;;;;;;4993770;28;20022;-69
2021/03/24 09:19:07;;;;;;;42.55;27.38;;;8.20;99.90;;;;;;4992565;28;20109;-70
2021/03/24 09:21:58;;;;;;;40.50;26.98;;;8.30;99.90;;;;;;4993812;28;20109;-70
2021/03/24 09:25:06;;;;;;;37.33;25.20;;;8.30;99.90;;;;;;4993832;28;20188;-70
2021/03/24 09:27:37;;;;;;;44.75;27.13;;;8.30;99.90;;;;;;4993126;28;20019;-70
2021/03/24 09:30:29;;;;;;;36.53;25.52;;;8.40;99.90;;;;;;4998839;28;20088;-71
2021/03/24 09:33:36;;;;;;;42.05;27.80;;;8.50;99.90;;;;;;4963413;28;20400;-70
2021/03/24 09:36:23;;;;;;;38.05;26.88;;;8.60;99.90;;;;;;4995558;28;20031;-70
2021/03/24 09:38:50;;;;;;;38.67;27.65;;;8.80;99.90;;;;;;4995349;28;20018;-71
2021/03/24 09:41:18;;;;;;;38.80;26.73;;;8.90;99.90;;;;;;4998862;28;20030;-70
2021/03/24 09:43:48;;;;;;;38.47;27.45;;;9.00;99.90;;;;;;4994673;28;20286;-70
2021/03/24 09:46:31;;;;;;;39.30;27.33;;;9.10;99.90;;;;;;4993499;28;20062;-70
2021/03/24 09:49:01;;;;;;;43.75;27.23;;;8.90;99.90;;;;;;4993527;28;20122;-70
2021/03/24 09:51:42;;;;;;;41.75;26.77;;;8.70;99.90;;;;;;4993737;28;20054;-71
2021/03/24 09:54:21;;;;;;;38.50;26.88;;;8.80;99.90;;;;;;4993656;28;20022;-70
2021/03/24 09:57:05;;;;;;;42.10;27.77;;;9.00;99.90;;;;;;4995285;28;20436;-70
2021/03/24 09:59:35;;;;;;;41.38;27.48;;;9.00;99.90;;;;;;4993414;28;20026;-70
2021/03/24 10:02:24;;;;;;;39.40;26.95;;;9.10;99.90;;;;;;4994130;28;20029;-70
2021/03/24 10:04:54;;;;;;;39.83;26.88;;;9.10;99.90;;;;;;4989962;28;20070;-70
2021/03/24 10:07:30;;;;;;;40.33;27.27;;;9.20;99.90;;;;;;4996500;28;20395;-70
2021/03/24 10:10:15;;;;;;;38.20;25.17;;;9.30;99.90;;;;;;4995309;28;20052;-70
2021/03/24 10:12:55;;;;;;;41.08;26.25;;;9.30;99.90;;;;;;4993319;28;20033;-69
2021/03/24 10:15:30;;;;;;;37.50;26.45;;;9.30;99.90;;;;;;4996972;28;20050;-70
2021/03/24 10:18:07;;;;;;;36.33;25.90;;;9.40;99.90;;;;;;4993511;28;20026;-70
2021/03/24 10:20:39;;;;;;;37.13;26.48;;;9.40;99.90;;;;;;4993020;28;20070;-71
2021/03/24 10:23:11;;;;;;;36.40;26.83;;;9.50;99.90;;;;;;4992633;28;20062;-71
2021/03/24 10:25:45;;;;;;;35.17;25.17;;;9.60;99.90;;;;;;4992092;28;20109;-70
2021/03/24 10:28:25;;;;;;;36.28;25.92;;;9.60;99.90;;;;;;4992565;28;20026;-70
2021/03/24 10:31:01;;;;;;;34.60;25.38;;;9.40;99.90;;;;;;4991744;28;20384;-70
2021/03/24 10:33:40;;;;;;;34.80;25.83;;;9.50;99.90;;;;;;4992690;28;20029;-70
2021/03/24 10:36:36;;;;;;;34.53;23.73;;;9.40;99.90;;;;;;4995121;28;20492;-73
2021/03/24 10:39:13;;;;;;;36.40;24.35;;;9.40;99.90;;;;;;4978271;28;20120;-70
2021/03/24 10:41:57;;;;;;;38.42;24.50;;;9.30;99.90;;;;;;4993228;28;20030;-71
2021/03/24 10:45:05;;;;;;;34.35;24.40;;;9.40;99.90;;;;;;5008317;28;20105;-70
2021/03/24 10:47:38;;;;;;;33.72;24.15;;;9.60;99.90;;;;;;4911780;29;20119;-71
2021/03/24 10:50:21;;;;;;;34.60;23.58;;;9.50;99.90;;;;;;4979055;28;20039;-71
2021/03/24 10:52:59;;;;;;;36.15;24.05;;;9.60;99.90;;;;;;5007228;28;20026;-71
2021/03/24 10:55:27;;;;;;;34.20;25.33;;;9.80;99.90;;;;;;4992789;28;20769;-71
2021/03/24 10:58:04;;;;;;;34.92;23.10;;;9.90;99.90;;;;;;4992108;28;20029;-71
2021/03/24 11:00:32;;;;;;;33.92;22.98;;;10.00;99.90;;;;;;4993438;28;20030;-71
2021/03/24 11:03:19;;;;;;;34.00;24.17;;;10.00;99.90;;;;;;4991464;28;20042;-72
2021/03/24 11:06:04;;;;;;;35.17;23.50;;;10.10;99.90;;;;;;4991808;28;20036;-71
2021/03/24 11:08:57;;;;;;;37.35;24.83;;;10.10;99.90;;;;;;4992074;28;20034;-71
2021/03/24 11:11:43;;;;;;;36.38;23.35;;;10.10;99.90;;;;;;4994002;28;20046;-71
2021/03/24 11:14:17;;;;;;;34.40;23.48;;;10.20;99.90;;;;;;4988902;28;20034;-71
2021/03/24 11:17:11;;;;;;;32.50;22.30;;;10.20;99.90;;;;;;4989662;28;20027;-71
2021/03/24 11:19:48;;;;;;;33.40;23.90;;;10.40;99.90;;;;;;5005527;28;20038;-72
2021/03/24 11:22:14;;;;;;;34.33;22.38;;;10.60;99.90;;;;;;4992183;28;20018;-71
2021/03/24 11:25:00;;;;;;;34.50;23.20;;;10.70;99.90;;;;;;4992034;28;20037;-71
2021/03/24 11:27:43;;;;;;;32.75;22.23;;;10.60;99.90;;;;;;4990982;28;20423;-70
2021/03/24 11:30:09;;;;;;;37.53;25.05;;;10.60;99.90;;;;;;4992163;28;20365;-70
2021/03/24 11:32:43;;;;;;;35.00;23.65;;;10.80;99.90;;;;;;4998468;28;20026;-70
2021/03/24 11:35:20;;;;;;;36.83;23.25;;;10.90;99.90;;;;;;4996923;28;20061;-71
2021/03/24 11:38:20;;;;;;;35.63;22.65;;;10.70;99.90;;;;;;4992442;28;20494;-71
2021/03/24 11:40:52;;;;;;;34.97;23.13;;;10.60;99.90;;;;;;4989573;28;20080;-70
2021/03/24 11:43:25;;;;;;;35.40;22.83;;;10.70;99.90;;;;;;4990934;28;20384;-70
2021/03/24 11:46:18;;;;;;;33.78;24.48;;;10.70;99.90;;;;;;4991787;28;20109;-70
2021/03/24 11:49:23;;;;;;;34.50;23.60;;;10.80;99.90;;;;;;4992258;28;20619;-69
2021/03/24 11:52:15;;;;;;;33.50;23.08;;;10.80;99.90;;;;;;4988182;28;20484;-71
2021/03/24 11:54:47;;;;;;;34.60;22.75;;;11.20;99.90;;;;;;4992191;28;20042;-71
2021/03/24 11:57:37;;;;;;;33.10;23.25;;;11.50;99.90;;;;;;4991775;28;20052;-70
2021/03/24 12:00:39;;;;;;;35.80;24.70;;;11.70;99.90;;;;;;4987963;28;20022;-71
2021/03/24 12:03:36;;;;;;;36.45;23.38;;;11.90;99.90;;;;;;4991681;28;20034;-70
2021/03/24 12:06:10;;;;;;;33.97;23.30;;;12.70;99.90;;;;;;4985424;28;20019;-70
2021/03/24 12:08:59;;;;;;;35.17;23.20;;;13.00;99.90;;;;;;5005402;28;20037;-71
2021/03/24 12:11:33;;;;;;;33.10;23.40;;;13.30;99.90;;;;;;4991899;28;20038;-71
2021/03/24 12:14:25;;;;;;;32.20;22.40;;;14.00;99.90;;;;;;5002076;28;20022;-71
2021/03/24 12:16:59;;;;;;;30.10;22.30;;;14.80;99.90;;;;;;5000557;28;20443;-71
2021/03/24 12:19:37;;;;;;;31.60;22.33;;;15.30;99.30;;;;;;5007449;28;20026;-70
2021/03/24 12:22:23;;;;;;;30.40;22.27;;;15.50;99.90;;;;;;5000996;28;20026;-70
2021/03/24 12:25:00;;;;;;;31.20;22.42;;;15.50;99.90;;;;;;4991962;28;20033;-71
2021/03/24 12:27:32;;;;;;;31.55;22.42;;;16.10;98.90;;;;;;4991669;28;20033;-72
2021/03/24 12:30:33;;;;;;;30.92;22.55;;;16.40;96.90;;;;;;4994839;28;20026;-71
2021/03/24 12:33:22;;;;;;;30.45;23.83;;;15.70;96.20;;;;;;4995374;28;20030;-71
2021/03/24 12:36:21;;;;;;;26.98;21.55;;;15.60;95.80;;;;;;4995433;28;20023;-71
2021/03/24 12:38:49;;;;;;;29.58;22.80;;;15.70;96.10;;;;;;4995394;28;20034;-71
2021/03/24 12:41:35;;;;;;;28.70;20.27;;;15.80;95.60;;;;;;4995250;28;20113;-71
2021/03/24 12:44:35;;;;;;;28.13;22.30;;;16.40;94.50;;;;;;4999861;28;20380;-71
2021/03/24 12:47:03;;;;;;;29.13;22.08;;;17.00;93.80;;;;;;4999426;28;20110;-71
2021/03/24 12:49:31;;;;;;;29.02;22.25;;;17.40;92.60;;;;;;4995241;28;20019;-71
2021/03/24 12:52:29;;;;;;;27.13;21.02;;;17.10;91.10;;;;;;5010853;28;20025;-70
2021/03/24 12:54:55;;;;;;;31.25;22.92;;;17.20;90.80;;;;;;5014608;28;20399;-71
2021/03/24 12:57:41;;;;;;;26.88;21.48;;;17.40;87.20;;;;;;5014871;28;20018;-71
2021/03/24 13:00:25;;;;;;;;;;;17.30;89.00;;;;;;5014988;28;20088;-71
2021/03/24 13:03:03;;;;;;;26.08;21.52;;;17.90;89.80;;;;;;5014408;28;19992;-71
2021/03/24 13:06:11;;;;;;;26.42;20.20;;;17.30;81.80;;;;;;5007813;28;20037;-71
2021/03/24 13:08:56;;;;;;;26.92;21.55;;;18.40;84.10;;;;;;4994875;28;20053;-71
2021/03/24 13:11:28;;;;;;;26.02;21.73;;;18.40;83.90;;;;;;4994579;28;20395;-72
2021/03/24 13:14:10;;;;;;;28.30;21.40;;;18.10;83.40;;;;;;4994812;28;20023;-71
2021/03/24 13:16:50;;;;;;;27.45;22.52;;;18.70;82.60;;;;;;4994500;28;20045;-72
2021/03/24 13:20:07;;;;;;;28.83;21.25;;;18.80;80.20;;;;;;4995451;28;20023;-72
2021/03/24 13:22:55;;;;;;;28.38;21.58;;;18.90;78.90;;;;;;5012637;28;20541;-72
2021/03/24 13:25:32;;;;;;;27.48;21.58;;;20.10;76.20;;;;;;4994514;28;20023;-72
2021/03/24 13:28:22;;;;;;;29.85;24.55;;;20.50;74.90;;;;;;4994561;28;20026;-71
2021/03/24 13:31:02;;;;;;;29.95;23.23;;;19.20;75.70;;;;;;4994175;28;20030;-71
2021/03/24 13:33:47;;;;;;;27.67;23.58;;;19.40;78.10;;;;;;4995268;28;20496;-72